Time;durP1;ratioP1;P1;durP2;ratioP2;P2;SDS_P1;SDS_P2;PMS_P1;PMS_P2;Temp;Humidity;BMP_temperature;BMP_pressure;BME280_temperature;BME280_humidity;BME280_pressure;Samples;Min_cycle;Max_cycle;Signal;HPM_P1;HPM_P2
2020/12/13 17:12:01;;;;;;;13.37;4.60;;;;;;;;;;10371354;22;20242;-65
2020/12/13 17:17:03;;;;;;;17.00;4.87;;;;;;;;;;10283238;28;20313;-67
2020/12/13 17:22:05;;;;;;;17.77;4.83;;;;;;;;;;10284052;28;20828;-69
2020/12/13 17:27:08;;;;;;;10.90;3.90;;;;;;;;;;10291613;28;20887;-67
2020/12/13 17:32:11;;;;;;;12.13;4.47;;;;;;;;;;10278249;28;20234;-66
2020/12/13 17:37:13;;;;;;;18.00;4.53;;;;;;;;;;10287325;28;20685;-66
2020/12/13 17:42:16;;;;;;;15.80;4.30;;;;;;;;;;10274941;28;20281;-66
2020/12/13 17:47:22;;;;;;;14.47;5.03;;;;;;;;;;10286780;28;20707;-68
2020/12/13 17:52:36;;;;;;;12.67;3.77;;;;;;;;;;10280009;28;20246;-66
2020/12/13 17:57:41;;;;;;;16.90;4.77;;;;;;;;;;10286547;28;20278;-65
2020/12/13 18:02:44;;;;;;;16.17;4.53;;;;;;;;;;10283569;28;20739;-65
2020/12/13 18:07:46;;;;;;;19.57;4.53;;;;;;;;;;10304196;28;20605;-65
2020/12/13 18:12:50;;;;;;;13.67;4.47;;;;;;;;;;10290314;28;20253;-65
2020/12/13 18:17:52;;;;;;;15.70;4.50;;;;;;;;;;10292811;28;20699;-65
2020/12/13 18:22:54;;;;;;;13.37;4.63;;;;;;;;;;10293191;28;20214;-64
2020/12/13 18:27:57;;;;;;;17.23;4.20;;;;;;;;;;10295915;28;20213;-65
2020/12/13 18:33:00;;;;;;;16.30;4.57;;;;;;;;;;10288800;28;20246;-65
2020/12/13 18:38:02;;;;;;;15.50;4.67;;;;;;;;;;10280825;28;20598;-67
2020/12/13 18:43:05;;;;;;;14.43;5.10;;;;;;;;;;10285617;28;20221;-65
2020/12/13 18:48:07;;;;;;;13.40;4.67;;;;;;;;;;10293481;28;20221;-65
2020/12/13 18:53:10;;;;;;;14.90;5.30;;;;;;;;;;10289891;28;20242;-64
2020/12/13 18:58:12;;;;;;;13.93;4.87;;;;;;;;;;10288266;28;20761;-64
2020/12/13 19:08:34;;;;;;;15.83;4.27;;;;;;;;;;10310769;28;20217;-65
2020/12/13 19:13:39;;;;;;;13.77;4.23;;;;;;;;;;10271603;28;735526;-65
2020/12/13 19:18:41;;;;;;;11.13;4.47;;;;;;;;;;10289514;28;20716;-65
2020/12/13 19:23:45;;;;;;;10.47;4.30;;;;;;;;;;10289094;28;20218;-65
2020/12/13 19:28:48;;;;;;;14.60;4.10;;;;;;;;;;10293146;28;20283;-65
2020/12/13 19:33:50;;;;;;;15.43;4.63;;;;;;;;;;10291704;28;20273;-64
2020/12/13 19:38:52;;;;;;;12.57;4.27;;;;;;;;;;10289632;28;20591;-65
2020/12/13 19:43:54;;;;;;;12.67;4.37;;;;;;;;;;10296257;28;20718;-65
2020/12/13 19:48:57;;;;;;;10.60;3.80;;;;;;;;;;10291175;28;20233;-64
2020/12/13 19:53:59;;;;;;;15.47;4.77;;;;;;;;;;10279950;28;20239;-65
2020/12/13 19:59:02;;;;;;;15.83;4.63;;;;;;;;;;10285659;28;20216;-65
2020/12/13 20:04:04;;;;;;;16.93;4.20;;;;;;;;;;10292741;28;20233;-66
2020/12/13 20:09:06;;;;;;;13.60;4.20;;;;;;;;;;10288722;28;20846;-64
2020/12/13 20:14:20;;;;;;;15.27;4.60;;;;;;;;;;10297146;28;20260;-64
2020/12/13 21:19:03;;;;;;;13.20;3.77;;;;;;;;;;10286427;28;20228;-64
2020/12/13 21:24:45;;;;;;;12.90;3.43;;;;;;;;;;10285532;28;20217;-65
2020/12/13 21:30:17;;;;;;;12.77;3.23;;;;;;;;;;10285629;28;20262;-63
2020/12/13 21:40:53;;;;;;;9.83;3.13;;;;;;;;;;10283277;28;20229;-65
2020/12/13 21:46:06;;;;;;;17.67;3.10;;;;;;;;;;10286375;28;20214;-63
2020/12/13 21:51:20;;;;;;;14.07;3.20;;;;;;;;;;10279814;28;20273;-64
2020/12/13 21:56:42;;;;;;;14.13;3.67;;;;;;;;;;10288718;28;20218;-64
2020/12/13 22:28:24;;;;;;;9.77;2.73;;;;;;;;;;10294589;28;20689;-65
2020/12/13 22:33:25;;;;;;;16.33;3.10;;;;;;;;;;10301877;28;20618;-65
2020/12/13 22:38:29;;;;;;;9.13;2.70;;;;;;;;;;10297949;28;20213;-65
2020/12/13 22:43:30;;;;;;;13.57;2.73;;;;;;;;;;10300633;28;20225;-65
2020/12/13 22:48:35;;;;;;;10.37;2.67;;;;;;;;;;10304074;28;20218;-63
2020/12/13 22:53:38;;;;;;;11.73;2.70;;;;;;;;;;10305805;28;20245;-64
2020/12/13 22:58:40;;;;;;;8.70;2.63;;;;;;;;;;10299336;28;20627;-64
2020/12/13 23:03:42;;;;;;;10.57;2.60;;;;;;;;;;10303224;28;20240;-64
2020/12/13 23:08:44;;;;;;;17.80;2.60;;;;;;;;;;10293546;28;20225;-64
2020/12/13 23:13:46;;;;;;;12.47;3.13;;;;;;;;;;10297862;28;20768;-64
2020/12/13 23:18:48;;;;;;;15.37;2.40;;;;;;;;;;10294068;28;20218;-67
2020/12/13 23:23:52;;;;;;;7.40;2.80;;;;;;;;;;10301991;28;20630;-67
2020/12/13 23:28:54;;;;;;;9.70;2.60;;;;;;;;;;10292316;28;20221;-67
2020/12/13 23:33:56;;;;;;;11.03;2.80;;;;;;;;;;10296765;28;20716;-68
2020/12/13 23:38:59;;;;;;;10.10;2.57;;;;;;;;;;10301196;28;20215;-68
2020/12/13 23:44:01;;;;;;;9.90;2.70;;;;;;;;;;10297011;28;20333;-68
2020/12/13 23:49:03;;;;;;;12.10;3.10;;;;;;;;;;10288416;28;20296;-67
2020/12/13 23:54:06;;;;;;;8.13;2.60;;;;;;;;;;10291251;28;20233;-67
2020/12/13 23:59:08;;;;;;;9.37;2.90;;;;;;;;;;10302967;28;20218;-67
